sensor_id;sensor_type;location;lat;lon;timestamp;P1;durP1;ratioP1;P2;durP2;ratioP2
16543;SDS011;8384;47.996;7.786;2023-02-26T00:00:04;4.80;;;3.23;;
16543;SDS011;8384;47.996;7.786;2023-02-26T00:02:42;4.50;;;2.90;;
16543;SDS011;8384;47.996;7.786;2023-02-26T00:05:10;3.65;;;2.80;;
16543;SDS011;8384;47.996;7.786;2023-02-26T00:07:36;4.25;;;2.60;;
16543;SDS011;8384;47.996;7.786;2023-02-26T00:10:04;4.63;;;2.72;;
16543;SDS011;8384;47.996;7.786;2023-02-26T00:12:33;4.30;;;2.72;;
16543;SDS011;8384;47.996;7.786;2023-02-26T00:14:59;4.17;;;2.67;;
16543;SDS011;8384;47.996;7.786;2023-02-26T00:20:21;3.70;;;2.50;;
16543;SDS011;8384;47.996;7.786;2023-02-26T00:22:46;2.75;;;2.20;;
16543;SDS011;8384;47.996;7.786;2023-02-26T00:25:12;5.10;;;2.80;;
16543;SDS011;8384;47.996;7.786;2023-02-26T00:27:37;4.03;;;2.43;;
16543;SDS011;8384;47.996;7.786;2023-02-26T00:30:04;3.35;;;2.45;;
16543;SDS011;8384;47.996;7.786;2023-02-26T00:32:33;4.05;;;2.45;;
16543;SDS011;8384;47.996;7.786;2023-02-26T00:34:59;3.45;;;2.30;;
16543;SDS011;8384;47.996;7.786;2023-02-26T00:37:34;4.37;;;2.57;;
16543;SDS011;8384;47.996;7.786;2023-02-26T00:42:43;4.37;;;2.47;;
16543;SDS011;8384;47.996;7.786;2023-02-26T00:45:09;2.90;;;2.10;;
16543;SDS011;8384;47.996;7.786;2023-02-26T00:47:58;3.55;;;2.38;;
16543;SDS011;8384;47.996;7.786;2023-02-26T00:50:46;3.42;;;2.17;;
16543;SDS011;8384;47.996;7.786;2023-02-26T00:53:25;3.50;;;2.30;;
16543;SDS011;8384;47.996;7.786;2023-02-26T00:55:55;3.53;;;2.30;;
16543;SDS011;8384;47.996;7.786;2023-02-26T00:58:20;3.72;;;2.25;;
16543;SDS011;8384;47.996;7.786;2023-02-26T01:00:46;3.95;;;2.35;;
16543;SDS011;8384;47.996;7.786;2023-02-26T01:03:11;4.83;;;2.40;;
16543;SDS011;8384;47.996;7.786;2023-02-26T01:05:37;4.80;;;2.80;;
16543;SDS011;8384;47.996;7.786;2023-02-26T01:08:11;3.63;;;2.20;;
16543;SDS011;8384;47.996;7.786;2023-02-26T01:10:43;4.10;;;2.30;;
16543;SDS011;8384;47.996;7.786;2023-02-26T01:13:09;2.75;;;2.00;;
16543;SDS011;8384;47.996;7.786;2023-02-26T01:15:34;3.70;;;2.33;;
16543;SDS011;8384;47.996;7.786;2023-02-26T01:21:02;3.55;;;2.20;;
16543;SDS011;8384;47.996;7.786;2023-02-26T01:23:31;3.58;;;2.28;;
16543;SDS011;8384;47.996;7.786;2023-02-26T01:26:14;3.67;;;2.28;;
16543;SDS011;8384;47.996;7.786;2023-02-26T01:28:45;3.78;;;2.35;;
16543;SDS011;8384;47.996;7.786;2023-02-26T01:31:21;3.87;;;2.20;;
16543;SDS011;8384;47.996;7.786;2023-02-26T01:33:58;3.25;;;2.00;;
16543;SDS011;8384;47.996;7.786;2023-02-26T01:36:31;3.15;;;2.30;;
16543;SDS011;8384;47.996;7.786;2023-02-26T01:41:56;3.42;;;2.20;;
16543;SDS011;8384;47.996;7.786;2023-02-26T01:47:27;3.25;;;2.33;;
16543;SDS011;8384;47.996;7.786;2023-02-26T01:49:53;2.65;;;2.13;;
16543;SDS011;8384;47.996;7.786;2023-02-26T01:53:06;3.30;;;2.10;;
16543;SDS011;8384;47.996;7.786;2023-02-26T01:55:17;3.17;;;2.10;;
16543;SDS011;8384;47.996;7.786;2023-02-26T01:57:45;3.25;;;2.03;;
16543;SDS011;8384;47.996;7.786;2023-02-26T02:00:11;3.50;;;2.30;;
16543;SDS011;8384;47.996;7.786;2023-02-26T02:02:37;2.58;;;1.90;;
16543;SDS011;8384;47.996;7.786;2023-02-26T02:05:03;3.00;;;2.05;;
16543;SDS011;8384;47.996;7.786;2023-02-26T02:07:36;2.17;;;1.95;;
16543;SDS011;8384;47.996;7.786;2023-02-26T02:10:01;3.23;;;2.00;;
16543;SDS011;8384;47.996;7.786;2023-02-26T02:15:39;2.60;;;2.13;;
16543;SDS011;8384;47.996;7.786;2023-02-26T02:18:13;2.70;;;2.10;;
16543;SDS011;8384;47.996;7.786;2023-02-26T02:23:42;4.07;;;1.90;;
16543;SDS011;8384;47.996;7.786;2023-02-26T02:26:27;2.28;;;1.88;;
16543;SDS011;8384;47.996;7.786;2023-02-26T02:32:11;2.95;;;2.20;;
16543;SDS011;8384;47.996;7.786;2023-02-26T02:34:53;2.33;;;2.00;;
16543;SDS011;8384;47.996;7.786;2023-02-26T02:37:31;3.15;;;1.90;;
16543;SDS011;8384;47.996;7.786;2023-02-26T02:42:31;4.50;;;2.10;;
16543;SDS011;8384;47.996;7.786;2023-02-26T02:45:00;3.00;;;2.00;;
16543;SDS011;8384;47.996;7.786;2023-02-26T02:47:32;2.65;;;2.00;;
16543;SDS011;8384;47.996;7.786;2023-02-26T02:50:04;3.65;;;1.92;;
16543;SDS011;8384;47.996;7.786;2023-02-26T02:52:40;2.88;;;1.90;;
16543;SDS011;8384;47.996;7.786;2023-02-26T02:55:19;3.10;;;1.90;;
16543;SDS011;8384;47.996;7.786;2023-02-26T02:57:52;2.65;;;1.80;;
16543;SDS011;8384;47.996;7.786;2023-02-26T03:00:25;3.95;;;2.10;;
16543;SDS011;8384;47.996;7.786;2023-02-26T03:02:59;2.83;;;2.05;;
16543;SDS011;8384;47.996;7.786;2023-02-26T03:05:32;2.75;;;2.03;;
16543;SDS011;8384;47.996;7.786;2023-02-26T03:07:59;2.43;;;2.07;;
16543;SDS011;8384;47.996;7.786;2023-02-26T03:10:28;3.28;;;2.10;;
16543;SDS011;8384;47.996;7.786;2023-02-26T03:12:55;2.73;;;2.03;;
16543;SDS011;8384;47.996;7.786;2023-02-26T03:15:25;2.38;;;2.10;;
16543;SDS011;8384;47.996;7.786;2023-02-26T03:23:56;2.60;;;2.00;;
16543;SDS011;8384;47.996;7.786;2023-02-26T03:26:27;2.93;;;2.00;;
16543;SDS011;8384;47.996;7.786;2023-02-26T03:29:20;2.70;;;2.00;;
16543;SDS011;8384;47.996;7.786;2023-02-26T03:32:02;2.95;;;2.22;;
16543;SDS011;8384;47.996;7.786;2023-02-26T03:34:37;2.75;;;2.10;;
16543;SDS011;8384;47.996;7.786;2023-02-26T03:37:30;3.78;;;2.17;;
16543;SDS011;8384;47.996;7.786;2023-02-26T03:40:15;3.15;;;1.88;;
16543;SDS011;8384;47.996;7.786;2023-02-26T03:42:47;3.05;;;2.08;;
16543;SDS011;8384;47.996;7.786;2023-02-26T03:45:22;3.50;;;2.17;;
16543;SDS011;8384;47.996;7.786;2023-02-26T03:47:51;2.53;;;2.10;;
16543;SDS011;8384;47.996;7.786;2023-02-26T03:53:15;2.85;;;2.22;;
16543;SDS011;8384;47.996;7.786;2023-02-26T03:55:49;2.65;;;1.95;;
16543;SDS011;8384;47.996;7.786;2023-02-26T03:58:21;2.70;;;2.25;;
16543;SDS011;8384;47.996;7.786;2023-02-26T04:00:49;2.87;;;1.87;;
16543;SDS011;8384;47.996;7.786;2023-02-26T04:03:31;3.05;;;2.17;;
16543;SDS011;8384;47.996;7.786;2023-02-26T04:06:01;3.90;;;2.50;;
16543;SDS011;8384;47.996;7.786;2023-02-26T04:08:27;3.97;;;2.35;;
16543;SDS011;8384;47.996;7.786;2023-02-26T04:10:54;3.75;;;2.30;;
16543;SDS011;8384;47.996;7.786;2023-02-26T04:13:22;2.95;;;2.20;;
16543;SDS011;8384;47.996;7.786;2023-02-26T04:15:48;2.97;;;2.53;;
16543;SDS011;8384;47.996;7.786;2023-02-26T04:18:14;2.78;;;2.10;;
16543;SDS011;8384;47.996;7.786;2023-02-26T04:20:39;3.07;;;2.30;;
16543;SDS011;8384;47.996;7.786;2023-02-26T04:23:05;3.03;;;2.40;;
16543;SDS011;8384;47.996;7.786;2023-02-26T04:25:30;3.37;;;2.17;;
16543;SDS011;8384;47.996;7.786;2023-02-26T04:27:55;2.67;;;2.00;;
16543;SDS011;8384;47.996;7.786;2023-02-26T04:30:21;3.03;;;2.30;;
16543;SDS011;8384;47.996;7.786;2023-02-26T04:32:46;4.90;;;3.00;;
16543;SDS011;8384;47.996;7.786;2023-02-26T04:35:11;3.47;;;2.50;;
16543;SDS011;8384;47.996;7.786;2023-02-26T04:37:37;2.63;;;2.30;;
16543;SDS011;8384;47.996;7.786;2023-02-26T04:40:02;3.20;;;2.20;;
16543;SDS011;8384;47.996;7.786;2023-02-26T04:42:28;3.85;;;2.70;;
16543;SDS011;8384;47.996;7.786;2023-02-26T04:44:54;4.20;;;2.80;;
16543;SDS011;8384;47.996;7.786;2023-02-26T04:47:19;3.37;;;2.30;;
16543;SDS011;8384;47.996;7.786;2023-02-26T04:49:45;2.70;;;2.20;;
16543;SDS011;8384;47.996;7.786;2023-02-26T04:52:10;2.53;;;2.30;;
16543;SDS011;8384;47.996;7.786;2023-02-26T04:54:35;4.43;;;2.40;;
16543;SDS011;8384;47.996;7.786;2023-02-26T04:57:01;2.83;;;2.20;;
16543;SDS011;8384;47.996;7.786;2023-02-26T04:59:27;3.63;;;2.17;;
16543;SDS011;8384;47.996;7.786;2023-02-26T05:01:52;3.70;;;2.00;;
16543;SDS011;8384;47.996;7.786;2023-02-26T05:04:17;4.00;;;2.43;;
16543;SDS011;8384;47.996;7.786;2023-02-26T05:06:43;2.70;;;2.37;;
16543;SDS011;8384;47.996;7.786;2023-02-26T05:09:08;3.67;;;2.27;;
16543;SDS011;8384;47.996;7.786;2023-02-26T05:11:33;2.93;;;2.33;;
16543;SDS011;8384;47.996;7.786;2023-02-26T05:13:58;3.72;;;2.45;;
16543;SDS011;8384;47.996;7.786;2023-02-26T05:16:24;4.05;;;2.30;;
16543;SDS011;8384;47.996;7.786;2023-02-26T05:18:49;3.87;;;2.17;;
16543;SDS011;8384;47.996;7.786;2023-02-26T05:21:14;4.20;;;2.30;;
16543;SDS011;8384;47.996;7.786;2023-02-26T05:23:40;3.97;;;2.30;;
16543;SDS011;8384;47.996;7.786;2023-02-26T05:26:05;3.13;;;2.20;;
16543;SDS011;8384;47.996;7.786;2023-02-26T05:28:30;3.60;;;2.27;;
16543;SDS011;8384;47.996;7.786;2023-02-26T05:30:57;3.13;;;2.50;;
16543;SDS011;8384;47.996;7.786;2023-02-26T05:33:23;4.32;;;2.70;;
16543;SDS011;8384;47.996;7.786;2023-02-26T05:35:48;3.50;;;2.50;;
16543;SDS011;8384;47.996;7.786;2023-02-26T05:38:14;3.07;;;2.37;;
16543;SDS011;8384;47.996;7.786;2023-02-26T05:40:39;3.88;;;2.50;;
16543;SDS011;8384;47.996;7.786;2023-02-26T05:43:05;3.97;;;2.70;;
16543;SDS011;8384;47.996;7.786;2023-02-26T05:45:30;3.00;;;2.50;;
16543;SDS011;8384;47.996;7.786;2023-02-26T05:47:55;3.40;;;2.53;;
16543;SDS011;8384;47.996;7.786;2023-02-26T05:50:21;5.00;;;2.80;;
16543;SDS011;8384;47.996;7.786;2023-02-26T05:52:46;5.32;;;2.80;;
16543;SDS011;8384;47.996;7.786;2023-02-26T05:55:11;3.60;;;2.50;;
16543;SDS011;8384;47.996;7.786;2023-02-26T05:57:37;4.27;;;2.57;;
16543;SDS011;8384;47.996;7.786;2023-02-26T06:00:03;3.70;;;3.00;;
16543;SDS011;8384;47.996;7.786;2023-02-26T06:02:30;3.97;;;2.45;;
16543;SDS011;8384;47.996;7.786;2023-02-26T06:04:55;3.83;;;2.97;;
16543;SDS011;8384;47.996;7.786;2023-02-26T06:07:20;3.90;;;2.50;;
16543;SDS011;8384;47.996;7.786;2023-02-26T06:09:45;3.97;;;2.43;;
16543;SDS011;8384;47.996;7.786;2023-02-26T06:12:11;2.87;;;2.43;;
16543;SDS011;8384;47.996;7.786;2023-02-26T06:14:36;3.70;;;2.30;;
16543;SDS011;8384;47.996;7.786;2023-02-26T06:17:02;3.63;;;2.25;;
16543;SDS011;8384;47.996;7.786;2023-02-26T06:19:28;4.38;;;2.40;;
16543;SDS011;8384;47.996;7.786;2023-02-26T06:21:53;2.50;;;2.30;;
16543;SDS011;8384;47.996;7.786;2023-02-26T06:24:18;4.00;;;2.53;;
16543;SDS011;8384;47.996;7.786;2023-02-26T06:26:43;2.63;;;2.10;;
16543;SDS011;8384;47.996;7.786;2023-02-26T06:29:09;2.90;;;2.20;;
16543;SDS011;8384;47.996;7.786;2023-02-26T06:31:34;2.53;;;2.03;;
16543;SDS011;8384;47.996;7.786;2023-02-26T06:34:00;4.40;;;2.10;;
16543;SDS011;8384;47.996;7.786;2023-02-26T06:36:25;3.97;;;2.33;;
16543;SDS011;8384;47.996;7.786;2023-02-26T06:38:50;3.57;;;2.00;;
16543;SDS011;8384;47.996;7.786;2023-02-26T06:41:15;3.90;;;2.00;;
16543;SDS011;8384;47.996;7.786;2023-02-26T06:43:41;2.42;;;2.00;;
16543;SDS011;8384;47.996;7.786;2023-02-26T06:46:06;4.83;;;2.13;;
16543;SDS011;8384;47.996;7.786;2023-02-26T06:48:31;2.40;;;1.50;;
16543;SDS011;8384;47.996;7.786;2023-02-26T06:50:57;2.50;;;1.70;;
16543;SDS011;8384;47.996;7.786;2023-02-26T06:53:22;2.90;;;1.60;;
16543;SDS011;8384;47.996;7.786;2023-02-26T06:55:49;2.93;;;1.70;;
16543;SDS011;8384;47.996;7.786;2023-02-26T06:58:15;2.60;;;1.73;;
16543;SDS011;8384;47.996;7.786;2023-02-26T07:00:40;2.90;;;1.40;;
16543;SDS011;8384;47.996;7.786;2023-02-26T07:03:06;3.87;;;1.73;;
16543;SDS011;8384;47.996;7.786;2023-02-26T07:05:33;3.47;;;1.60;;
16543;SDS011;8384;47.996;7.786;2023-02-26T07:07:59;2.10;;;1.90;;
16543;SDS011;8384;47.996;7.786;2023-02-26T07:10:24;2.67;;;1.90;;
16543;SDS011;8384;47.996;7.786;2023-02-26T07:12:50;3.30;;;2.13;;
16543;SDS011;8384;47.996;7.786;2023-02-26T07:15:15;3.78;;;2.03;;
16543;SDS011;8384;47.996;7.786;2023-02-26T07:17:41;3.53;;;2.10;;
16543;SDS011;8384;47.996;7.786;2023-02-26T07:20:07;4.38;;;2.03;;
16543;SDS011;8384;47.996;7.786;2023-02-26T07:22:34;3.73;;;1.70;;
16543;SDS011;8384;47.996;7.786;2023-02-26T07:25:00;4.07;;;2.13;;
16543;SDS011;8384;47.996;7.786;2023-02-26T07:27:25;2.93;;;2.00;;
16543;SDS011;8384;47.996;7.786;2023-02-26T07:29:51;4.40;;;2.13;;
16543;SDS011;8384;47.996;7.786;2023-02-26T07:32:16;3.50;;;2.50;;
16543;SDS011;8384;47.996;7.786;2023-02-26T07:34:41;4.10;;;2.20;;
16543;SDS011;8384;47.996;7.786;2023-02-26T07:37:07;4.23;;;2.33;;
16543;SDS011;8384;47.996;7.786;2023-02-26T07:39:32;3.83;;;2.00;;
16543;SDS011;8384;47.996;7.786;2023-02-26T07:41:57;4.50;;;2.40;;
16543;SDS011;8384;47.996;7.786;2023-02-26T07:44:22;4.43;;;2.37;;
16543;SDS011;8384;47.996;7.786;2023-02-26T07:46:48;4.13;;;2.40;;
16543;SDS011;8384;47.996;7.786;2023-02-26T07:49:13;3.65;;;2.40;;
16543;SDS011;8384;47.996;7.786;2023-02-26T07:51:39;4.07;;;2.10;;
16543;SDS011;8384;47.996;7.786;2023-02-26T07:54:04;4.10;;;2.10;;
16543;SDS011;8384;47.996;7.786;2023-02-26T07:56:30;3.53;;;2.20;;
16543;SDS011;8384;47.996;7.786;2023-02-26T07:58:55;3.90;;;2.20;;
16543;SDS011;8384;47.996;7.786;2023-02-26T08:01:21;3.70;;;2.28;;
16543;SDS011;8384;47.996;7.786;2023-02-26T08:03:46;4.10;;;2.60;;
16543;SDS011;8384;47.996;7.786;2023-02-26T08:06:12;4.00;;;2.50;;
16543;SDS011;8384;47.996;7.786;2023-02-26T08:08:38;4.07;;;2.60;;
16543;SDS011;8384;47.996;7.786;2023-02-26T08:11:03;4.32;;;2.10;;
16543;SDS011;8384;47.996;7.786;2023-02-26T08:13:29;3.87;;;2.20;;
16543;SDS011;8384;47.996;7.786;2023-02-26T08:15:54;3.17;;;2.00;;
16543;SDS011;8384;47.996;7.786;2023-02-26T08:18:19;2.97;;;1.93;;
16543;SDS011;8384;47.996;7.786;2023-02-26T08:20:45;2.38;;;1.85;;
16543;SDS011;8384;47.996;7.786;2023-02-26T08:23:10;3.00;;;1.83;;
16543;SDS011;8384;47.996;7.786;2023-02-26T08:25:36;3.78;;;2.00;;
16543;SDS011;8384;47.996;7.786;2023-02-26T08:28:01;2.40;;;1.73;;
16543;SDS011;8384;47.996;7.786;2023-02-26T08:30:27;3.43;;;1.90;;
16543;SDS011;8384;47.996;7.786;2023-02-26T08:32:53;5.53;;;2.10;;
16543;SDS011;8384;47.996;7.786;2023-02-26T08:35:18;3.57;;;1.80;;
16543;SDS011;8384;47.996;7.786;2023-02-26T08:37:43;2.90;;;1.80;;
16543;SDS011;8384;47.996;7.786;2023-02-26T08:40:09;3.45;;;2.17;;
16543;SDS011;8384;47.996;7.786;2023-02-26T08:42:35;3.00;;;1.73;;
16543;SDS011;8384;47.996;7.786;2023-02-26T08:45:01;4.07;;;1.97;;
16543;SDS011;8384;47.996;7.786;2023-02-26T08:47:27;3.42;;;2.10;;
16543;SDS011;8384;47.996;7.786;2023-02-26T08:49:52;4.25;;;2.78;;
16543;SDS011;8384;47.996;7.786;2023-02-26T08:52:18;3.63;;;1.97;;
16543;SDS011;8384;47.996;7.786;2023-02-26T08:54:44;3.35;;;2.05;;
16543;SDS011;8384;47.996;7.786;2023-02-26T08:57:09;2.57;;;2.00;;
16543;SDS011;8384;47.996;7.786;2023-02-26T08:59:35;3.00;;;2.07;;
16543;SDS011;8384;47.996;7.786;2023-02-26T09:02:00;1.75;;;1.58;;
16543;SDS011;8384;47.996;7.786;2023-02-26T09:04:25;3.10;;;1.70;;
16543;SDS011;8384;47.996;7.786;2023-02-26T09:06:50;3.33;;;1.80;;
16543;SDS011;8384;47.996;7.786;2023-02-26T09:09:16;3.23;;;2.67;;
16543;SDS011;8384;47.996;7.786;2023-02-26T09:11:43;2.90;;;1.60;;
16543;SDS011;8384;47.996;7.786;2023-02-26T09:14:09;2.87;;;1.90;;
16543;SDS011;8384;47.996;7.786;2023-02-26T09:16:34;2.42;;;1.50;;
16543;SDS011;8384;47.996;7.786;2023-02-26T09:19:00;2.55;;;1.45;;
16543;SDS011;8384;47.996;7.786;2023-02-26T09:21:26;2.70;;;1.50;;
16543;SDS011;8384;47.996;7.786;2023-02-26T09:23:51;4.97;;;3.38;;
16543;SDS011;8384;47.996;7.786;2023-02-26T09:26:17;2.33;;;1.50;;
16543;SDS011;8384;47.996;7.786;2023-02-26T09:28:42;2.47;;;1.30;;
16543;SDS011;8384;47.996;7.786;2023-02-26T09:31:07;1.90;;;1.00;;
16543;SDS011;8384;47.996;7.786;2023-02-26T09:33:34;2.13;;;1.20;;
16543;SDS011;8384;47.996;7.786;2023-02-26T09:35:59;2.50;;;1.27;;
16543;SDS011;8384;47.996;7.786;2023-02-26T09:38:25;2.10;;;1.33;;
16543;SDS011;8384;47.996;7.786;2023-02-26T09:46:39;1.88;;;1.10;;
16543;SDS011;8384;47.996;7.786;2023-02-26T09:49:09;2.65;;;1.45;;
16543;SDS011;8384;47.996;7.786;2023-02-26T09:51:43;2.60;;;1.38;;
16543;SDS011;8384;47.996;7.786;2023-02-26T09:54:14;2.63;;;1.50;;
16543;SDS011;8384;47.996;7.786;2023-02-26T09:56:43;2.20;;;1.20;;
16543;SDS011;8384;47.996;7.786;2023-02-26T09:59:09;1.85;;;1.10;;
16543;SDS011;8384;47.996;7.786;2023-02-26T10:12:26;2.13;;;1.20;;
16543;SDS011;8384;47.996;7.786;2023-02-26T10:15:05;1.63;;;1.10;;
16543;SDS011;8384;47.996;7.786;2023-02-26T10:20:22;2.33;;;1.20;;
16543;SDS011;8384;47.996;7.786;2023-02-26T10:22:55;1.60;;;1.10;;
16543;SDS011;8384;47.996;7.786;2023-02-26T10:25:29;2.10;;;1.35;;
16543;SDS011;8384;47.996;7.786;2023-02-26T10:28:00;3.28;;;1.40;;
16543;SDS011;8384;47.996;7.786;2023-02-26T10:30:33;1.98;;;1.23;;
16543;SDS011;8384;47.996;7.786;2023-02-26T10:35:30;1.80;;;1.20;;
16543;SDS011;8384;47.996;7.786;2023-02-26T10:38:04;2.65;;;1.52;;
16543;SDS011;8384;47.996;7.786;2023-02-26T10:40:46;2.30;;;1.40;;
16543;SDS011;8384;47.996;7.786;2023-02-26T10:49:18;2.10;;;1.20;;
16543;SDS011;8384;47.996;7.786;2023-02-26T10:52:12;1.52;;;0.90;;
16543;SDS011;8384;47.996;7.786;2023-02-26T10:54:44;1.98;;;1.00;;
16543;SDS011;8384;47.996;7.786;2023-02-26T10:57:20;1.83;;;1.15;;
16543;SDS011;8384;47.996;7.786;2023-02-26T10:59:49;1.65;;;1.08;;
16543;SDS011;8384;47.996;7.786;2023-02-26T11:02:26;1.83;;;0.80;;
16543;SDS011;8384;47.996;7.786;2023-02-26T11:05:16;1.70;;;1.00;;
16543;SDS011;8384;47.996;7.786;2023-02-26T11:07:44;2.00;;;1.38;;
16543;SDS011;8384;47.996;7.786;2023-02-26T11:10:17;1.92;;;1.00;;
16543;SDS011;8384;47.996;7.786;2023-02-26T11:12:45;1.93;;;1.00;;
16543;SDS011;8384;47.996;7.786;2023-02-26T11:15:12;1.50;;;0.98;;
16543;SDS011;8384;47.996;7.786;2023-02-26T11:17:47;1.65;;;1.10;;
16543;SDS011;8384;47.996;7.786;2023-02-26T11:22:57;2.15;;;1.13;;
16543;SDS011;8384;47.996;7.786;2023-02-26T11:25:28;1.65;;;1.38;;
16543;SDS011;8384;47.996;7.786;2023-02-26T11:27:59;1.70;;;1.20;;
16543;SDS011;8384;47.996;7.786;2023-02-26T11:30:29;1.57;;;1.30;;
16543;SDS011;8384;47.996;7.786;2023-02-26T11:32:57;2.58;;;1.40;;
16543;SDS011;8384;47.996;7.786;2023-02-26T11:35:28;1.70;;;1.48;;
16543;SDS011;8384;47.996;7.786;2023-02-26T11:37:55;1.95;;;1.25;;
16543;SDS011;8384;47.996;7.786;2023-02-26T11:40:37;2.20;;;1.50;;
16543;SDS011;8384;47.996;7.786;2023-02-26T11:43:05;2.40;;;1.40;;
16543;SDS011;8384;47.996;7.786;2023-02-26T11:45:38;2.43;;;1.80;;
16543;SDS011;8384;47.996;7.786;2023-02-26T11:48:06;1.92;;;1.42;;
16543;SDS011;8384;47.996;7.786;2023-02-26T11:50:38;1.75;;;1.30;;
16543;SDS011;8384;47.996;7.786;2023-02-26T11:56:24;2.00;;;1.58;;
16543;SDS011;8384;47.996;7.786;2023-02-26T11:58:53;2.42;;;1.77;;
16543;SDS011;8384;47.996;7.786;2023-02-26T12:01:19;2.15;;;1.50;;
16543;SDS011;8384;47.996;7.786;2023-02-26T12:03:47;2.08;;;1.60;;
16543;SDS011;8384;47.996;7.786;2023-02-26T12:06:16;1.85;;;1.60;;
16543;SDS011;8384;47.996;7.786;2023-02-26T12:08:43;2.92;;;1.73;;
16543;SDS011;8384;47.996;7.786;2023-02-26T12:19:57;2.20;;;1.52;;
16543;SDS011;8384;47.996;7.786;2023-02-26T12:48:00;1.53;;;1.20;;
16543;SDS011;8384;47.996;7.786;2023-02-26T12:50:41;1.50;;;1.40;;
16543;SDS011;8384;47.996;7.786;2023-02-26T13:07:06;2.10;;;1.52;;
16543;SDS011;8384;47.996;7.786;2023-02-26T13:09:47;1.73;;;1.20;;
16543;SDS011;8384;47.996;7.786;2023-02-26T13:21:17;1.98;;;1.40;;
16543;SDS011;8384;47.996;7.786;2023-02-26T13:23:48;1.30;;;1.10;;
16543;SDS011;8384;47.996;7.786;2023-02-26T13:26:19;1.65;;;1.20;;
16543;SDS011;8384;47.996;7.786;2023-02-26T13:28:49;1.83;;;1.52;;
16543;SDS011;8384;47.996;7.786;2023-02-26T13:31:43;1.60;;;1.20;;
16543;SDS011;8384;47.996;7.786;2023-02-26T13:34:30;1.70;;;1.40;;
16543;SDS011;8384;47.996;7.786;2023-02-26T13:37:05;1.52;;;1.27;;
16543;SDS011;8384;47.996;7.786;2023-02-26T13:39:47;1.85;;;1.40;;
16543;SDS011;8384;47.996;7.786;2023-02-26T13:45:02;1.30;;;1.15;;
16543;SDS011;8384;47.996;7.786;2023-02-26T13:47:36;1.30;;;1.15;;
16543;SDS011;8384;47.996;7.786;2023-02-26T13:50:36;1.30;;;1.17;;
16543;SDS011;8384;47.996;7.786;2023-02-26T13:55:51;1.55;;;1.00;;
16543;SDS011;8384;47.996;7.786;2023-02-26T13:58:33;1.23;;;1.00;;
16543;SDS011;8384;47.996;7.786;2023-02-26T14:01:09;1.10;;;1.00;;
16543;SDS011;8384;47.996;7.786;2023-02-26T14:03:48;1.98;;;1.30;;
16543;SDS011;8384;47.996;7.786;2023-02-26T14:06:22;1.98;;;1.23;;
16543;SDS011;8384;47.996;7.786;2023-02-26T14:09:03;2.35;;;2.13;;
16543;SDS011;8384;47.996;7.786;2023-02-26T14:11:57;1.88;;;1.70;;
16543;SDS011;8384;47.996;7.786;2023-02-26T14:19:44;1.30;;;1.10;;
16543;SDS011;8384;47.996;7.786;2023-02-26T14:22:40;1.80;;;1.33;;
16543;SDS011;8384;47.996;7.786;2023-02-26T14:27:36;1.30;;;1.10;;
16543;SDS011;8384;47.996;7.786;2023-02-26T14:32:33;1.40;;;1.20;;
16543;SDS011;8384;47.996;7.786;2023-02-26T14:35:05;1.30;;;1.20;;
16543;SDS011;8384;47.996;7.786;2023-02-26T14:37:36;1.63;;;1.40;;
16543;SDS011;8384;47.996;7.786;2023-02-26T14:42:47;1.63;;;1.52;;
16543;SDS011;8384;47.996;7.786;2023-02-26T14:48:06;1.60;;;1.50;;
16543;SDS011;8384;47.996;7.786;2023-02-26T14:59:13;2.47;;;2.28;;
16543;SDS011;8384;47.996;7.786;2023-02-26T15:02:04;1.90;;;1.73;;
16543;SDS011;8384;47.996;7.786;2023-02-26T15:09:44;1.50;;;1.40;;
16543;SDS011;8384;47.996;7.786;2023-02-26T15:12:33;1.17;;;1.10;;
16543;SDS011;8384;47.996;7.786;2023-02-26T15:21:14;1.67;;;1.57;;
16543;SDS011;8384;47.996;7.786;2023-02-26T15:23:48;1.52;;;1.17;;
16543;SDS011;8384;47.996;7.786;2023-02-26T15:26:17;1.42;;;1.33;;
16543;SDS011;8384;47.996;7.786;2023-02-26T15:28:47;1.30;;;1.20;;
16543;SDS011;8384;47.996;7.786;2023-02-26T15:31:13;1.25;;;1.15;;
16543;SDS011;8384;47.996;7.786;2023-02-26T15:33:39;1.77;;;1.10;;
16543;SDS011;8384;47.996;7.786;2023-02-26T15:36:07;1.90;;;1.20;;
16543;SDS011;8384;47.996;7.786;2023-02-26T15:38:40;1.55;;;1.10;;
16543;SDS011;8384;47.996;7.786;2023-02-26T15:41:07;1.10;;;1.10;;
16543;SDS011;8384;47.996;7.786;2023-02-26T15:43:33;1.30;;;1.20;;
16543;SDS011;8384;47.996;7.786;2023-02-26T15:45:59;1.67;;;1.00;;
16543;SDS011;8384;47.996;7.786;2023-02-26T15:48:34;1.47;;;1.17;;
16543;SDS011;8384;47.996;7.786;2023-02-26T15:51:03;1.40;;;1.30;;
16543;SDS011;8384;47.996;7.786;2023-02-26T15:53:33;1.90;;;1.20;;
16543;SDS011;8384;47.996;7.786;2023-02-26T15:56:02;1.20;;;1.10;;
16543;SDS011;8384;47.996;7.786;2023-02-26T15:58:41;1.40;;;1.20;;
16543;SDS011;8384;47.996;7.786;2023-02-26T16:01:16;1.20;;;1.10;;
16543;SDS011;8384;47.996;7.786;2023-02-26T16:03:43;1.52;;;1.42;;
16543;SDS011;8384;47.996;7.786;2023-02-26T16:06:10;1.20;;;1.10;;
16543;SDS011;8384;47.996;7.786;2023-02-26T16:08:37;1.13;;;1.03;;
16543;SDS011;8384;47.996;7.786;2023-02-26T16:11:03;1.20;;;1.10;;
16543;SDS011;8384;47.996;7.786;2023-02-26T16:13:31;1.23;;;1.13;;
16543;SDS011;8384;47.996;7.786;2023-02-26T16:16:03;1.30;;;1.20;;
16543;SDS011;8384;47.996;7.786;2023-02-26T16:18:33;1.83;;;1.35;;
16543;SDS011;8384;47.996;7.786;2023-02-26T16:21:00;1.53;;;1.43;;
16543;SDS011;8384;47.996;7.786;2023-02-26T16:23:41;2.40;;;2.20;;
16543;SDS011;8384;47.996;7.786;2023-02-26T16:26:19;1.67;;;1.50;;
16543;SDS011;8384;47.996;7.786;2023-02-26T16:28:47;1.80;;;1.70;;
16543;SDS011;8384;47.996;7.786;2023-02-26T16:31:18;1.88;;;1.67;;
16543;SDS011;8384;47.996;7.786;2023-02-26T16:33:57;1.73;;;1.63;;
16543;SDS011;8384;47.996;7.786;2023-02-26T16:36:32;1.40;;;1.30;;
16543;SDS011;8384;47.996;7.786;2023-02-26T16:41:30;1.40;;;1.30;;
16543;SDS011;8384;47.996;7.786;2023-02-26T16:43:59;1.77;;;1.10;;
16543;SDS011;8384;47.996;7.786;2023-02-26T16:46:36;1.40;;;1.30;;
16543;SDS011;8384;47.996;7.786;2023-02-26T16:51:53;1.15;;;1.00;;
16543;SDS011;8384;47.996;7.786;2023-02-26T16:57:17;1.00;;;0.90;;
16543;SDS011;8384;47.996;7.786;2023-02-26T16:59:48;1.02;;;0.93;;
16543;SDS011;8384;47.996;7.786;2023-02-26T17:02:21;1.03;;;1.00;;
16543;SDS011;8384;47.996;7.786;2023-02-26T17:04:52;1.05;;;0.95;;
16543;SDS011;8384;47.996;7.786;2023-02-26T17:07:25;1.45;;;1.20;;
16543;SDS011;8384;47.996;7.786;2023-02-26T17:09:57;1.90;;;1.30;;
16543;SDS011;8384;47.996;7.786;2023-02-26T17:12:37;1.45;;;1.00;;
16543;SDS011;8384;47.996;7.786;2023-02-26T17:15:18;1.30;;;1.20;;
16543;SDS011;8384;47.996;7.786;2023-02-26T17:17:59;1.33;;;1.23;;
16543;SDS011;8384;47.996;7.786;2023-02-26T17:20:25;1.80;;;1.70;;
16543;SDS011;8384;47.996;7.786;2023-02-26T17:22:52;1.50;;;1.25;;
16543;SDS011;8384;47.996;7.786;2023-02-26T17:25:18;1.30;;;1.20;;
16543;SDS011;8384;47.996;7.786;2023-02-26T17:27:45;1.55;;;1.40;;
16543;SDS011;8384;47.996;7.786;2023-02-26T17:30:12;1.75;;;1.48;;
16543;SDS011;8384;47.996;7.786;2023-02-26T17:32:40;2.28;;;1.92;;
16543;SDS011;8384;47.996;7.786;2023-02-26T17:35:06;1.58;;;1.40;;
16543;SDS011;8384;47.996;7.786;2023-02-26T17:37:33;2.15;;;1.77;;
16543;SDS011;8384;47.996;7.786;2023-02-26T17:40:00;1.50;;;1.25;;
16543;SDS011;8384;47.996;7.786;2023-02-26T17:42:26;1.00;;;0.90;;
16543;SDS011;8384;47.996;7.786;2023-02-26T17:44:52;1.10;;;1.00;;
16543;SDS011;8384;47.996;7.786;2023-02-26T17:47:20;1.50;;;1.40;;
16543;SDS011;8384;47.996;7.786;2023-02-26T17:49:47;1.50;;;1.02;;
16543;SDS011;8384;47.996;7.786;2023-02-26T17:52:13;1.77;;;1.50;;
16543;SDS011;8384;47.996;7.786;2023-02-26T17:54:39;1.95;;;1.35;;
16543;SDS011;8384;47.996;7.786;2023-02-26T17:57:05;1.63;;;1.50;;
16543;SDS011;8384;47.996;7.786;2023-02-26T17:59:31;2.25;;;1.63;;
16543;SDS011;8384;47.996;7.786;2023-02-26T18:01:57;2.00;;;1.80;;
16543;SDS011;8384;47.996;7.786;2023-02-26T18:04:23;1.90;;;1.50;;
16543;SDS011;8384;47.996;7.786;2023-02-26T18:06:48;1.30;;;1.20;;
16543;SDS011;8384;47.996;7.786;2023-02-26T18:09:13;1.42;;;1.33;;